USTRURKA

Guest
Details From USTR - Roschino
To URKA - Vityazevo
Flight Number -
Tags Generated
Created
Modified
Stats Distance 1,269 nm / 2,350 km
Max Altitude 0 ft / 0 m
Waypoints 6
Social Downloads 0
Likes 0
Share VATSIM

Download

Looking for another format? Having issues loading an existing format? Contact us
Advertisement - Login to hide

Notes

Generated

Route

USTR GOLER PEKUR RYBAK ANAKA URKA

ID Type Via Altitude Latitude Longitude Leg Dist Tot Dist Heading (true) Name
O USTR APT - 0 ft / 0 m 57.17551˚ 65.29199˚ - 0 nm - -
GOLER FIX - 0 ft / 0 m 55.20000˚ 58.15000˚ 266 nm 266 nm 247° / 241° -
PEKUR FIX - 0 ft / 0 m 53.19000˚ 52.56833˚ 230 nm 496 nm 241° / 236° -
RYBAK FIX - 0 ft / 0 m 47.65000˚ 41.50000˚ 537 nm 1034 nm 236° / 228° -
ANAKA FIX - 0 ft / 0 m 45.00167˚ 37.34833˚ 234 nm 1268 nm 229° / 226° -
O URKA APT - 0 ft / 0 m 44.99374˚ 37.33714˚ 0 nm 1269 nm 225° / 225° -

Altitude Profile

Advertisement - Login to hide

Weather


0- 5 10 15 20 25 30 35+ Temperature / ° C

Clouds and Precipitation
Forecast for 2017-12-16 12:00 UTC. Updated 3 minutes ago

Ground ~20,000 ft ~40,000 ft Winds

USTR

Details ICAO USTR (TJM)
Name Roschino
Region Russia
Timezone Asia/Yekaterinburg (UTC+5.0)
Stats Elevation 377 ft / 115 m (AMSL)
Location 57.180416° 65.314677°
Runways 3
Magnetic Variation 14.974° E

METAR

USTR 160700Z 21006MPS CAVOK M12/M16 Q1038 R30/CLRD65 NOSIG RMK QFE769/1025

Decode

TAF

TAF USTR 160452Z 1606/1706 21006MPS 9999 SCT030 TEMPO 1606/1612 22008MPS DRSN

Decode

Departure Runways

ID Width Length Bearing (true) Bearing (mag) Surface Threshold Offset Overrun Length
03 148 ft / 45 m 9,827 ft / 2,995 m 47.68° 32.71° Asphalt 0 ft / 0 m 0 ft / 0 m
03L 328 ft / 100 m 6,705 ft / 2,044 m 47.58° 32.61° Grass 0 ft / 0 m 0 ft / 0 m
12 164 ft / 50 m 8,820 ft / 2,688 m 134.79° 119.82° Asphalt 0 ft / 0 m 0 ft / 0 m
21 148 ft / 45 m 9,827 ft / 2,995 m 227.71° 212.74° Asphalt 0 ft / 0 m 0 ft / 0 m
21R 328 ft / 100 m 6,705 ft / 2,044 m 227.60° 212.63° Grass 0 ft / 0 m 0 ft / 0 m
30 164 ft / 50 m 8,820 ft / 2,688 m 314.81° 299.84° Asphalt 0 ft / 0 m 0 ft / 0 m

URKA

Details ICAO URKA (AAQ)
Name Vityazevo
Region Russia
Timezone Europe/Moscow (UTC+3.0)
Stats Elevation 173 ft / 53 m (AMSL)
Location 45.001895° 37.347609°
Runways 2
Magnetic Variation 7.172° E

METAR

URKA 160700Z 14008MPS CAVOK 12/06 Q1015 R22/290160 NOSIG RMK QFE756/1009

Decode

TAF

TAF TAF URKA 160452Z 1606/1706 14007G12MPS 9999 SCT030 TEMPO 1606/1615 16009G14MPS

Decode

Destination Runways

ID Width Length Bearing (true) Bearing (mag) Surface Threshold Offset Overrun Length
04 138 ft / 42 m 7,961 ft / 2,426 m 43.79° 36.62° Concrete 0 ft / 0 m 157 ft / 48 m
04R 312 ft / 95 m 8,009 ft / 2,441 m 43.78° 36.61° Grass 0 ft / 0 m 0 ft / 0 m
22 138 ft / 42 m 7,961 ft / 2,426 m 223.81° 216.64° Concrete 0 ft / 0 m 164 ft / 50 m
22L 312 ft / 95 m 8,009 ft / 2,441 m 223.80° 216.63° Grass 0 ft / 0 m 0 ft / 0 m